aviador You're here:

OINE Decoded Metar

KALALEH in IRAN
Report Time2018-02-22 08:00:00
UTC Time2018-02-22 08:43:09
Flight Rules vfr VFR
Wind320° at 04 kt
W.Decomp.*RWY 28: 3.2 kt HW 2.4 kt RCW
W.Rank320° ranks 24
Current wind is below 320° avg. (4.9)
Visibility8000 m
Phenomena:N/A
Clouds:Scattered 030 Hf
Overcast 100 Hf
Expected CloudBase > 2,000 ft AGL from Temp-Dew spread
Ceiling10,000 ft
Temp11°C (ISA -3)
Dew Point06°C (72% RH)
AAT8.7°C
QNH1015 hPa
Density Alt108 ft
Elevation425 ft
Report Wrong Elevation
Raw Report
METAR OINE 220800Z 32004KT 8000 SCT030 OVC100 11/06 Q1015=

Extra information for OINE:More info

Metar Taf Metar & Taf Last 4 Metars F.Rules Stats Wind Profile Meteogram Temp Stats Airport Information Weather charts Add Link Nearby VenuesMetar ALERT Operation Metar Decoded Social comments